sensor_id;sensor_type;location;lat;lon;timestamp;temperature;humidity
69598;SHT31;70000;51.176;-115.568;2023-06-19T00:01:41;16.95;60.33
69598;SHT31;70000;51.176;-115.568;2023-06-19T00:04:10;17.83;58.04
69598;SHT31;70000;51.176;-115.568;2023-06-19T00:06:39;17.73;55.27
69598;SHT31;70000;51.176;-115.568;2023-06-19T00:09:08;17.18;56.08
69598;SHT31;70000;51.176;-115.568;2023-06-19T00:11:37;16.96;53.88
69598;SHT31;70000;51.176;-115.568;2023-06-19T00:14:06;16.86;52.49
69598;SHT31;70000;51.176;-115.568;2023-06-19T00:16:35;16.77;49.90
69598;SHT31;70000;51.176;-115.568;2023-06-19T00:19:04;16.61;48.52
69598;SHT31;70000;51.176;-115.568;2023-06-19T00:21:33;16.50;47.33
69598;SHT31;70000;51.176;-115.568;2023-06-19T00:24:02;16.41;47.97
69598;SHT31;70000;51.176;-115.568;2023-06-19T00:26:33;16.27;49.78
69598;SHT31;70000;51.176;-115.568;2023-06-19T00:29:02;16.02;47.84
69598;SHT31;70000;51.176;-115.568;2023-06-19T00:31:32;15.82;46.82
69598;SHT31;70000;51.176;-115.568;2023-06-19T00:34:04;15.65;46.62
69598;SHT31;70000;51.176;-115.568;2023-06-19T00:36:34;15.39;46.19
69598;SHT31;70000;51.176;-115.568;2023-06-19T00:39:08;15.14;46.92
69598;SHT31;70000;51.176;-115.568;2023-06-19T00:41:38;14.96;46.79
69598;SHT31;70000;51.176;-115.568;2023-06-19T00:44:10;14.87;47.56
69598;SHT31;70000;51.176;-115.568;2023-06-19T00:46:40;14.75;48.43
69598;SHT31;70000;51.176;-115.568;2023-06-19T00:49:09;14.56;47.69
69598;SHT31;70000;51.176;-115.568;2023-06-19T00:51:39;14.33;48.30
69598;SHT31;70000;51.176;-115.568;2023-06-19T00:54:08;14.08;48.55
69598;SHT31;70000;51.176;-115.568;2023-06-19T00:56:38;13.90;49.08
69598;SHT31;70000;51.176;-115.568;2023-06-19T00:59:11;13.77;49.13
69598;SHT31;70000;51.176;-115.568;2023-06-19T01:01:46;13.67;49.65
69598;SHT31;70000;51.176;-115.568;2023-06-19T01:04:17;13.58;49.81
69598;SHT31;70000;51.176;-115.568;2023-06-19T01:09:38;13.43;49.92
69598;SHT31;70000;51.176;-115.568;2023-06-19T01:12:23;13.42;50.37
69598;SHT31;70000;51.176;-115.568;2023-06-19T01:15:03;13.44;49.12
69598;SHT31;70000;51.176;-115.568;2023-06-19T01:17:35;13.47;48.68
69598;SHT31;70000;51.176;-115.568;2023-06-19T01:20:05;13.52;48.60
69598;SHT31;70000;51.176;-115.568;2023-06-19T01:22:38;13.55;49.39
69598;SHT31;70000;51.176;-115.568;2023-06-19T01:25:11;13.55;49.79
69598;SHT31;70000;51.176;-115.568;2023-06-19T01:27:43;13.50;49.95
69598;SHT31;70000;51.176;-115.568;2023-06-19T01:30:12;13.35;50.28
69598;SHT31;70000;51.176;-115.568;2023-06-19T01:32:44;13.19;51.39
69598;SHT31;70000;51.176;-115.568;2023-06-19T01:35:32;13.03;51.53
69598;SHT31;70000;51.176;-115.568;2023-06-19T01:38:04;12.87;52.05
69598;SHT31;70000;51.176;-115.568;2023-06-19T01:40:35;12.74;52.70
69598;SHT31;70000;51.176;-115.568;2023-06-19T01:43:06;12.65;53.24
69598;SHT31;70000;51.176;-115.568;2023-06-19T01:45:39;12.59;53.76
69598;SHT31;70000;51.176;-115.568;2023-06-19T01:48:09;12.56;54.37
69598;SHT31;70000;51.176;-115.568;2023-06-19T01:50:38;12.54;53.72
69598;SHT31;70000;51.176;-115.568;2023-06-19T01:53:07;12.50;53.99
69598;SHT31;70000;51.176;-115.568;2023-06-19T01:55:45;12.44;54.44
69598;SHT31;70000;51.176;-115.568;2023-06-19T01:58:14;12.38;54.09
69598;SHT31;70000;51.176;-115.568;2023-06-19T02:00:43;12.32;53.97
69598;SHT31;70000;51.176;-115.568;2023-06-19T02:03:12;12.24;53.88
69598;SHT31;70000;51.176;-115.568;2023-06-19T02:05:42;12.18;53.65
69598;SHT31;70000;51.176;-115.568;2023-06-19T02:08:11;12.16;54.03
69598;SHT31;70000;51.176;-115.568;2023-06-19T02:10:40;12.18;54.21
69598;SHT31;70000;51.176;-115.568;2023-06-19T02:13:09;12.18;54.60
69598;SHT31;70000;51.176;-115.568;2023-06-19T02:15:37;12.19;55.10
69598;SHT31;70000;51.176;-115.568;2023-06-19T02:18:06;12.19;54.51
69598;SHT31;70000;51.176;-115.568;2023-06-19T02:20:37;12.12;54.36
69598;SHT31;70000;51.176;-115.568;2023-06-19T02:23:06;12.07;54.16
69598;SHT31;70000;51.176;-115.568;2023-06-19T02:25:35;12.06;54.02
69598;SHT31;70000;51.176;-115.568;2023-06-19T02:28:04;12.07;53.83
69598;SHT31;70000;51.176;-115.568;2023-06-19T02:30:33;12.06;53.72
69598;SHT31;70000;51.176;-115.568;2023-06-19T02:33:02;12.00;53.77
69598;SHT31;70000;51.176;-115.568;2023-06-19T02:35:32;11.97;53.87
69598;SHT31;70000;51.176;-115.568;2023-06-19T02:38:01;11.91;53.99
69598;SHT31;70000;51.176;-115.568;2023-06-19T02:40:32;11.90;54.56
69598;SHT31;70000;51.176;-115.568;2023-06-19T02:43:01;11.91;55.61
69598;SHT31;70000;51.176;-115.568;2023-06-19T02:45:30;11.82;56.91
69598;SHT31;70000;51.176;-115.568;2023-06-19T02:47:59;11.70;57.35
69598;SHT31;70000;51.176;-115.568;2023-06-19T02:50:28;11.64;57.91
69598;SHT31;70000;51.176;-115.568;2023-06-19T02:52:57;11.57;57.62
69598;SHT31;70000;51.176;-115.568;2023-06-19T02:55:29;11.48;57.36
69598;SHT31;70000;51.176;-115.568;2023-06-19T02:58:00;11.44;57.32
69598;SHT31;70000;51.176;-115.568;2023-06-19T03:00:29;11.37;58.42
69598;SHT31;70000;51.176;-115.568;2023-06-19T03:03:00;11.17;60.72
69598;SHT31;70000;51.176;-115.568;2023-06-19T03:05:30;10.99;61.17
69598;SHT31;70000;51.176;-115.568;2023-06-19T03:07:59;10.89;61.87
69598;SHT31;70000;51.176;-115.568;2023-06-19T03:10:28;10.72;61.85
69598;SHT31;70000;51.176;-115.568;2023-06-19T03:12:57;10.60;63.10
69598;SHT31;70000;51.176;-115.568;2023-06-19T03:15:26;10.57;63.49
69598;SHT31;70000;51.176;-115.568;2023-06-19T03:17:55;10.52;63.60
69598;SHT31;70000;51.176;-115.568;2023-06-19T03:20:24;10.44;63.82
69598;SHT31;70000;51.176;-115.568;2023-06-19T03:22:53;10.36;64.09
69598;SHT31;70000;51.176;-115.568;2023-06-19T03:25:22;10.20;64.67
69598;SHT31;70000;51.176;-115.568;2023-06-19T03:27:51;10.18;64.40
69598;SHT31;70000;51.176;-115.568;2023-06-19T03:30:20;10.20;64.70
69598;SHT31;70000;51.176;-115.568;2023-06-19T03:32:51;10.19;64.97
69598;SHT31;70000;51.176;-115.568;2023-06-19T03:35:20;10.20;64.15
69598;SHT31;70000;51.176;-115.568;2023-06-19T03:37:48;10.18;64.03
69598;SHT31;70000;51.176;-115.568;2023-06-19T03:40:17;10.15;63.84
69598;SHT31;70000;51.176;-115.568;2023-06-19T03:42:47;10.15;63.80
69598;SHT31;70000;51.176;-115.568;2023-06-19T03:45:16;10.18;65.12
69598;SHT31;70000;51.176;-115.568;2023-06-19T03:47:45;10.19;64.80
69598;SHT31;70000;51.176;-115.568;2023-06-19T03:50:14;10.19;63.35
69598;SHT31;70000;51.176;-115.568;2023-06-19T03:52:56;10.19;62.64
69598;SHT31;70000;51.176;-115.568;2023-06-19T03:55:26;10.21;63.32
69598;SHT31;70000;51.176;-115.568;2023-06-19T03:57:58;10.23;62.65
69598;SHT31;70000;51.176;-115.568;2023-06-19T04:00:27;10.22;62.75
69598;SHT31;70000;51.176;-115.568;2023-06-19T04:02:56;10.22;62.53
69598;SHT31;70000;51.176;-115.568;2023-06-19T04:05:25;10.20;63.20
69598;SHT31;70000;51.176;-115.568;2023-06-19T04:07:54;10.19;62.50
69598;SHT31;70000;51.176;-115.568;2023-06-19T04:10:24;10.17;62.38
69598;SHT31;70000;51.176;-115.568;2023-06-19T04:12:53;10.16;62.26
69598;SHT31;70000;51.176;-115.568;2023-06-19T04:15:23;10.13;62.41
69598;SHT31;70000;51.176;-115.568;2023-06-19T04:17:52;10.08;62.03
69598;SHT31;70000;51.176;-115.568;2023-06-19T04:20:21;10.07;62.38
69598;SHT31;70000;51.176;-115.568;2023-06-19T04:22:50;10.02;61.62
69598;SHT31;70000;51.176;-115.568;2023-06-19T04:25:19;9.95;61.81
69598;SHT31;70000;51.176;-115.568;2023-06-19T04:27:48;9.90;61.90
69598;SHT31;70000;51.176;-115.568;2023-06-19T04:30:17;9.87;62.32
69598;SHT31;70000;51.176;-115.568;2023-06-19T04:32:49;9.83;62.48
69598;SHT31;70000;51.176;-115.568;2023-06-19T04:35:20;9.79;61.43
69598;SHT31;70000;51.176;-115.568;2023-06-19T04:37:51;9.78;61.69
69598;SHT31;70000;51.176;-115.568;2023-06-19T04:40:21;9.75;61.28
69598;SHT31;70000;51.176;-115.568;2023-06-19T04:42:51;9.71;61.35
69598;SHT31;70000;51.176;-115.568;2023-06-19T04:45:21;9.69;61.17
69598;SHT31;70000;51.176;-115.568;2023-06-19T04:47:50;9.68;61.27
69598;SHT31;70000;51.176;-115.568;2023-06-19T04:50:20;9.68;61.27
69598;SHT31;70000;51.176;-115.568;2023-06-19T04:52:51;9.68;62.07
69598;SHT31;70000;51.176;-115.568;2023-06-19T04:55:20;9.66;62.93
69598;SHT31;70000;51.176;-115.568;2023-06-19T04:57:49;9.65;62.89
69598;SHT31;70000;51.176;-115.568;2023-06-19T05:00:18;9.65;64.06
69598;SHT31;70000;51.176;-115.568;2023-06-19T05:02:49;9.65;64.38
69598;SHT31;70000;51.176;-115.568;2023-06-19T05:05:19;9.66;63.68
69598;SHT31;70000;51.176;-115.568;2023-06-19T05:07:50;9.65;62.87
69598;SHT31;70000;51.176;-115.568;2023-06-19T05:10:20;9.62;62.44
69598;SHT31;70000;51.176;-115.568;2023-06-19T05:12:50;9.61;62.34
69598;SHT31;70000;51.176;-115.568;2023-06-19T05:15:19;9.62;62.13
69598;SHT31;70000;51.176;-115.568;2023-06-19T05:17:48;9.61;62.10
69598;SHT31;70000;51.176;-115.568;2023-06-19T05:20:19;9.62;61.57
69598;SHT31;70000;51.176;-115.568;2023-06-19T05:22:49;9.64;61.33
69598;SHT31;70000;51.176;-115.568;2023-06-19T05:25:18;9.65;61.29
69598;SHT31;70000;51.176;-115.568;2023-06-19T05:27:47;9.62;60.62
69598;SHT31;70000;51.176;-115.568;2023-06-19T05:30:16;9.61;60.55
69598;SHT31;70000;51.176;-115.568;2023-06-19T05:32:45;9.63;60.52
69598;SHT31;70000;51.176;-115.568;2023-06-19T05:35:14;9.61;59.94
69598;SHT31;70000;51.176;-115.568;2023-06-19T05:37:46;9.60;59.74
69598;SHT31;70000;51.176;-115.568;2023-06-19T05:40:16;9.60;59.98
69598;SHT31;70000;51.176;-115.568;2023-06-19T05:42:45;9.58;59.87
69598;SHT31;70000;51.176;-115.568;2023-06-19T05:45:14;9.56;59.56
69598;SHT31;70000;51.176;-115.568;2023-06-19T05:47:43;9.55;59.63
69598;SHT31;70000;51.176;-115.568;2023-06-19T05:50:12;9.56;59.83
69598;SHT31;70000;51.176;-115.568;2023-06-19T05:52:41;9.54;59.76
69598;SHT31;70000;51.176;-115.568;2023-06-19T05:55:11;9.51;59.79
69598;SHT31;70000;51.176;-115.568;2023-06-19T05:57:40;9.48;59.80
69598;SHT31;70000;51.176;-115.568;2023-06-19T06:00:09;9.48;59.60
69598;SHT31;70000;51.176;-115.568;2023-06-19T06:02:42;9.44;59.66
69598;SHT31;70000;51.176;-115.568;2023-06-19T06:05:13;9.39;59.68
69598;SHT31;70000;51.176;-115.568;2023-06-19T06:07:42;9.39;59.61
69598;SHT31;70000;51.176;-115.568;2023-06-19T06:10:13;9.38;59.68
69598;SHT31;70000;51.176;-115.568;2023-06-19T06:12:45;9.39;60.18
69598;SHT31;70000;51.176;-115.568;2023-06-19T06:15:14;9.39;59.64
69598;SHT31;70000;51.176;-115.568;2023-06-19T06:17:43;9.38;59.20
69598;SHT31;70000;51.176;-115.568;2023-06-19T06:20:12;9.39;59.17
69598;SHT31;70000;51.176;-115.568;2023-06-19T06:22:42;9.38;59.05
69598;SHT31;70000;51.176;-115.568;2023-06-19T06:25:11;9.35;58.99
69598;SHT31;70000;51.176;-115.568;2023-06-19T06:27:43;9.31;59.40
69598;SHT31;70000;51.176;-115.568;2023-06-19T06:30:13;9.29;59.46
69598;SHT31;70000;51.176;-115.568;2023-06-19T06:32:46;9.29;59.60
69598;SHT31;70000;51.176;-115.568;2023-06-19T06:35:15;9.29;59.63
69598;SHT31;70000;51.176;-115.568;2023-06-19T06:37:47;9.28;59.83
69598;SHT31;70000;51.176;-115.568;2023-06-19T06:40:17;9.29;59.40
69598;SHT31;70000;51.176;-115.568;2023-06-19T06:42:51;9.28;59.50
69598;SHT31;70000;51.176;-115.568;2023-06-19T06:45:24;9.25;59.47
69598;SHT31;70000;51.176;-115.568;2023-06-19T06:47:54;9.23;59.41
69598;SHT31;70000;51.176;-115.568;2023-06-19T06:50:22;9.20;59.20
69598;SHT31;70000;51.176;-115.568;2023-06-19T06:52:52;9.17;59.35
69598;SHT31;70000;51.176;-115.568;2023-06-19T06:55:21;9.15;59.54
69598;SHT31;70000;51.176;-115.568;2023-06-19T06:57:50;9.17;59.45
69598;SHT31;70000;51.176;-115.568;2023-06-19T07:00:19;9.17;59.30
69598;SHT31;70000;51.176;-115.568;2023-06-19T07:02:49;9.19;59.18
69598;SHT31;70000;51.176;-115.568;2023-06-19T07:05:19;9.20;58.71
69598;SHT31;70000;51.176;-115.568;2023-06-19T07:07:48;9.20;58.71
69598;SHT31;70000;51.176;-115.568;2023-06-19T07:10:17;9.22;58.76
69598;SHT31;70000;51.176;-115.568;2023-06-19T07:12:49;9.23;58.30
69598;SHT31;70000;51.176;-115.568;2023-06-19T07:15:19;9.23;58.19
69598;SHT31;70000;51.176;-115.568;2023-06-19T07:17:48;9.21;58.21
69598;SHT31;70000;51.176;-115.568;2023-06-19T07:20:17;9.21;58.27
69598;SHT31;70000;51.176;-115.568;2023-06-19T07:22:46;9.19;58.18
69598;SHT31;70000;51.176;-115.568;2023-06-19T07:25:16;9.16;58.26
69598;SHT31;70000;51.176;-115.568;2023-06-19T07:27:48;9.11;58.34
69598;SHT31;70000;51.176;-115.568;2023-06-19T07:30:17;9.09;58.54
69598;SHT31;70000;51.176;-115.568;2023-06-19T07:32:47;9.09;58.50
69598;SHT31;70000;51.176;-115.568;2023-06-19T07:35:21;9.09;58.52
69598;SHT31;70000;51.176;-115.568;2023-06-19T07:37:50;9.07;58.72
69598;SHT31;70000;51.176;-115.568;2023-06-19T07:40:22;9.06;59.14
69598;SHT31;70000;51.176;-115.568;2023-06-19T07:42:52;9.05;59.04
69598;SHT31;70000;51.176;-115.568;2023-06-19T07:45:21;9.05;59.04
69598;SHT31;70000;51.176;-115.568;2023-06-19T07:47:54;9.03;58.99
69598;SHT31;70000;51.176;-115.568;2023-06-19T07:50:25;8.98;58.72
69598;SHT31;70000;51.176;-115.568;2023-06-19T07:52:55;8.96;58.57
69598;SHT31;70000;51.176;-115.568;2023-06-19T07:55:26;8.95;58.63
69598;SHT31;70000;51.176;-115.568;2023-06-19T07:57:56;8.97;58.46
69598;SHT31;70000;51.176;-115.568;2023-06-19T08:00:25;8.93;58.42
69598;SHT31;70000;51.176;-115.568;2023-06-19T08:02:57;8.91;58.42
69598;SHT31;70000;51.176;-115.568;2023-06-19T08:05:26;8.87;58.19
69598;SHT31;70000;51.176;-115.568;2023-06-19T08:07:56;8.85;58.28
69598;SHT31;70000;51.176;-115.568;2023-06-19T08:10:32;8.82;58.27
69598;SHT31;70000;51.176;-115.568;2023-06-19T08:13:01;8.80;58.29
69598;SHT31;70000;51.176;-115.568;2023-06-19T08:15:30;8.75;58.56
69598;SHT31;70000;51.176;-115.568;2023-06-19T08:17:59;8.74;58.83
69598;SHT31;70000;51.176;-115.568;2023-06-19T08:20:28;8.71;59.01
69598;SHT31;70000;51.176;-115.568;2023-06-19T08:22:59;8.69;59.07
69598;SHT31;70000;51.176;-115.568;2023-06-19T08:25:32;8.66;59.27
69598;SHT31;70000;51.176;-115.568;2023-06-19T08:28:04;8.65;59.33
69598;SHT31;70000;51.176;-115.568;2023-06-19T08:30:34;8.61;59.33
69598;SHT31;70000;51.176;-115.568;2023-06-19T08:33:02;8.59;59.48
69598;SHT31;70000;51.176;-115.568;2023-06-19T08:35:32;8.59;59.36
69598;SHT31;70000;51.176;-115.568;2023-06-19T08:38:01;8.58;59.24
69598;SHT31;70000;51.176;-115.568;2023-06-19T08:40:30;8.57;59.16
69598;SHT31;70000;51.176;-115.568;2023-06-19T08:42:59;8.57;58.90
69598;SHT31;70000;51.176;-115.568;2023-06-19T08:45:28;8.58;58.88
69598;SHT31;70000;51.176;-115.568;2023-06-19T08:47:58;8.57;58.55
69598;SHT31;70000;51.176;-115.568;2023-06-19T08:50:32;8.55;58.46
69598;SHT31;70000;51.176;-115.568;2023-06-19T08:53:01;8.54;58.64
69598;SHT31;70000;51.176;-115.568;2023-06-19T08:55:36;8.54;58.81
69598;SHT31;70000;51.176;-115.568;2023-06-19T08:58:05;8.53;59.01
69598;SHT31;70000;51.176;-115.568;2023-06-19T09:00:34;8.50;59.32
69598;SHT31;70000;51.176;-115.568;2023-06-19T09:03:06;8.48;59.32
69598;SHT31;70000;51.176;-115.568;2023-06-19T09:05:40;8.48;59.20
69598;SHT31;70000;51.176;-115.568;2023-06-19T09:08:18;8.47;58.99
69598;SHT31;70000;51.176;-115.568;2023-06-19T09:11:01;8.47;58.95
69598;SHT31;70000;51.176;-115.568;2023-06-19T09:13:36;8.45;58.92
69598;SHT31;70000;51.176;-115.568;2023-06-19T09:16:05;8.45;58.70
69598;SHT31;70000;51.176;-115.568;2023-06-19T09:18:46;8.44;58.63
69598;SHT31;70000;51.176;-115.568;2023-06-19T09:21:19;8.46;58.69
69598;SHT31;70000;51.176;-115.568;2023-06-19T09:23:52;8.47;58.76
69598;SHT31;70000;51.176;-115.568;2023-06-19T09:26:21;8.48;58.97
69598;SHT31;70000;51.176;-115.568;2023-06-19T09:28:51;8.48;59.09
69598;SHT31;70000;51.176;-115.568;2023-06-19T09:31:30;8.48;59.02
69598;SHT31;70000;51.176;-115.568;2023-06-19T09:34:01;8.48;58.88
69598;SHT31;70000;51.176;-115.568;2023-06-19T09:36:31;8.50;58.69
69598;SHT31;70000;51.176;-115.568;2023-06-19T09:39:03;8.51;58.60
69598;SHT31;70000;51.176;-115.568;2023-06-19T09:41:35;8.49;58.70
69598;SHT31;70000;51.176;-115.568;2023-06-19T09:44:08;8.48;58.84
69598;SHT31;70000;51.176;-115.568;2023-06-19T09:46:52;8.48;59.10
69598;SHT31;70000;51.176;-115.568;2023-06-19T09:49:24;8.47;59.07
69598;SHT31;70000;51.176;-115.568;2023-06-19T09:51:58;8.47;58.89
69598;SHT31;70000;51.176;-115.568;2023-06-19T09:54:27;8.47;58.54
69598;SHT31;70000;51.176;-115.568;2023-06-19T09:56:57;8.48;58.51
69598;SHT31;70000;51.176;-115.568;2023-06-19T09:59:32;8.44;58.55
69598;SHT31;70000;51.176;-115.568;2023-06-19T10:02:02;8.43;58.69
69598;SHT31;70000;51.176;-115.568;2023-06-19T10:04:42;8.43;58.79
69598;SHT31;70000;51.176;-115.568;2023-06-19T10:07:17;8.40;58.96
69598;SHT31;70000;51.176;-115.568;2023-06-19T10:09:55;8.37;59.06
69598;SHT31;70000;51.176;-115.568;2023-06-19T10:15:18;8.33;58.97
69598;SHT31;70000;51.176;-115.568;2023-06-19T10:18:04;8.32;59.23
69598;SHT31;70000;51.176;-115.568;2023-06-19T10:20:45;8.35;59.09
69598;SHT31;70000;51.176;-115.568;2023-06-19T10:23:19;8.35;58.93
69598;SHT31;70000;51.176;-115.568;2023-06-19T10:25:58;8.35;58.96
69598;SHT31;70000;51.176;-115.568;2023-06-19T10:28:30;8.35;58.97
69598;SHT31;70000;51.176;-115.568;2023-06-19T10:31:03;8.32;59.05
69598;SHT31;70000;51.176;-115.568;2023-06-19T10:33:36;8.33;58.97
69598;SHT31;70000;51.176;-115.568;2023-06-19T10:36:18;8.32;58.90
69598;SHT31;70000;51.176;-115.568;2023-06-19T10:38:58;8.31;59.03
69598;SHT31;70000;51.176;-115.568;2023-06-19T10:41:27;8.31;59.08
69598;SHT31;70000;51.176;-115.568;2023-06-19T10:44:00;8.32;59.01
69598;SHT31;70000;51.176;-115.568;2023-06-19T10:46:42;8.32;59.07
69598;SHT31;70000;51.176;-115.568;2023-06-19T10:49:11;8.31;58.92
69598;SHT31;70000;51.176;-115.568;2023-06-19T10:51:41;8.28;59.22
69598;SHT31;70000;51.176;-115.568;2023-06-19T10:54:14;8.27;59.28
69598;SHT31;70000;51.176;-115.568;2023-06-19T10:56:44;8.30;59.11
69598;SHT31;70000;51.176;-115.568;2023-06-19T10:59:16;8.31;59.11
69598;SHT31;70000;51.176;-115.568;2023-06-19T11:01:48;8.31;59.06
69598;SHT31;70000;51.176;-115.568;2023-06-19T11:04:18;8.30;59.05
69598;SHT31;70000;51.176;-115.568;2023-06-19T11:06:47;8.30;59.10
69598;SHT31;70000;51.176;-115.568;2023-06-19T11:09:17;8.29;59.32
69598;SHT31;70000;51.176;-115.568;2023-06-19T11:11:49;8.28;59.51
69598;SHT31;70000;51.176;-115.568;2023-06-19T11:14:19;8.27;59.51
69598;SHT31;70000;51.176;-115.568;2023-06-19T11:16:48;8.22;59.91
69598;SHT31;70000;51.176;-115.568;2023-06-19T11:19:29;8.16;60.44
69598;SHT31;70000;51.176;-115.568;2023-06-19T11:22:02;8.14;60.91
69598;SHT31;70000;51.176;-115.568;2023-06-19T11:24:32;8.12;61.04
69598;SHT31;70000;51.176;-115.568;2023-06-19T11:27:02;8.08;61.34
69598;SHT31;70000;51.176;-115.568;2023-06-19T11:29:33;8.05;61.95
69598;SHT31;70000;51.176;-115.568;2023-06-19T11:32:06;8.03;61.70
69598;SHT31;70000;51.176;-115.568;2023-06-19T11:35:03;7.97;62.06
69598;SHT31;70000;51.176;-115.568;2023-06-19T11:37:35;7.92;62.78
69598;SHT31;70000;51.176;-115.568;2023-06-19T11:40:10;7.89;63.29
69598;SHT31;70000;51.176;-115.568;2023-06-19T11:42:48;7.86;63.42
69598;SHT31;70000;51.176;-115.568;2023-06-19T11:45:21;7.84;64.01
69598;SHT31;70000;51.176;-115.568;2023-06-19T11:47:51;7.78;64.46
69598;SHT31;70000;51.176;-115.568;2023-06-19T11:50:26;7.75;64.76
69598;SHT31;70000;51.176;-115.568;2023-06-19T11:52:58;7.68;65.56
69598;SHT31;70000;51.176;-115.568;2023-06-19T11:55:31;7.59;66.54
69598;SHT31;70000;51.176;-115.568;2023-06-19T11:58:00;7.57;66.75
69598;SHT31;70000;51.176;-115.568;2023-06-19T12:00:29;7.54;67.12
69598;SHT31;70000;51.176;-115.568;2023-06-19T12:02:58;7.51;67.11
69598;SHT31;70000;51.176;-115.568;2023-06-19T12:05:27;7.45;67.53
69598;SHT31;70000;51.176;-115.568;2023-06-19T12:07:56;7.38;68.11
69598;SHT31;70000;51.176;-115.568;2023-06-19T12:10:25;7.34;68.58
69598;SHT31;70000;51.176;-115.568;2023-06-19T12:12:55;7.31;68.85
69598;SHT31;70000;51.176;-115.568;2023-06-19T12:15:24;7.26;69.63
69598;SHT31;70000;51.176;-115.568;2023-06-19T12:17:53;7.20;70.07
69598;SHT31;70000;51.176;-115.568;2023-06-19T12:20:25;7.15;70.06
69598;SHT31;70000;51.176;-115.568;2023-06-19T12:22:55;7.09;70.50
69598;SHT31;70000;51.176;-115.568;2023-06-19T12:25:23;7.05;70.69
69598;SHT31;70000;51.176;-115.568;2023-06-19T12:27:52;7.02;70.83
69598;SHT31;70000;51.176;-115.568;2023-06-19T12:30:22;6.94;71.31
69598;SHT31;70000;51.176;-115.568;2023-06-19T12:32:51;6.85;72.06
69598;SHT31;70000;51.176;-115.568;2023-06-19T12:35:21;6.79;72.51
69598;SHT31;70000;51.176;-115.568;2023-06-19T12:37:51;6.75;72.63
69598;SHT31;70000;51.176;-115.568;2023-06-19T12:40:23;6.73;72.70
69598;SHT31;70000;51.176;-115.568;2023-06-19T12:42:52;6.69;72.57
69598;SHT31;70000;51.176;-115.568;2023-06-19T12:45:21;6.66;72.88
69598;SHT31;70000;51.176;-115.568;2023-06-19T12:47:50;6.66;73.26
69598;SHT31;70000;51.176;-115.568;2023-06-19T12:50:21;6.66;73.57
69598;SHT31;70000;51.176;-115.568;2023-06-19T12:52:51;6.67;74.01
69598;SHT31;70000;51.176;-115.568;2023-06-19T12:55:20;6.68;73.98
69598;SHT31;70000;51.176;-115.568;2023-06-19T12:57:49;6.68;74.21
69598;SHT31;70000;51.176;-115.568;2023-06-19T13:00:18;6.68;73.71
69598;SHT31;70000;51.176;-115.568;2023-06-19T13:02:47;6.69;73.69
69598;SHT31;70000;51.176;-115.568;2023-06-19T13:05:17;6.70;73.68
69598;SHT31;70000;51.176;-115.568;2023-06-19T13:07:46;6.69;73.40
69598;SHT31;70000;51.176;-115.568;2023-06-19T13:10:15;6.68;73.61
69598;SHT31;70000;51.176;-115.568;2023-06-19T13:12:47;6.70;73.91
69598;SHT31;70000;51.176;-115.568;2023-06-19T13:15:16;6.66;73.90
69598;SHT31;70000;51.176;-115.568;2023-06-19T13:17:47;6.60;73.96
69598;SHT31;70000;51.176;-115.568;2023-06-19T13:20:16;6.57;74.26
69598;SHT31;70000;51.176;-115.568;2023-06-19T13:22:45;6.56;74.54
69598;SHT31;70000;51.176;-115.568;2023-06-19T13:25:14;6.58;74.57
69598;SHT31;70000;51.176;-115.568;2023-06-19T13:27:44;6.58;74.38
69598;SHT31;70000;51.176;-115.568;2023-06-19T13:30:13;6.57;74.26
69598;SHT31;70000;51.176;-115.568;2023-06-19T13:32:44;6.55;74.42
69598;SHT31;70000;51.176;-115.568;2023-06-19T13:35:13;6.53;74.46
69598;SHT31;70000;51.176;-115.568;2023-06-19T13:37:42;6.52;74.91
69598;SHT31;70000;51.176;-115.568;2023-06-19T13:40:11;6.51;75.04
69598;SHT31;70000;51.176;-115.568;2023-06-19T13:42:40;6.52;75.23
69598;SHT31;70000;51.176;-115.568;2023-06-19T13:45:09;6.54;75.24
69598;SHT31;70000;51.176;-115.568;2023-06-19T13:47:39;6.56;75.42
69598;SHT31;70000;51.176;-115.568;2023-06-19T13:50:08;6.55;75.89
69598;SHT31;70000;51.176;-115.568;2023-06-19T13:52:37;6.55;75.85
69598;SHT31;70000;51.176;-115.568;2023-06-19T13:55:06;6.54;75.42
69598;SHT31;70000;51.176;-115.568;2023-06-19T13:57:36;6.53;75.03
69598;SHT31;70000;51.176;-115.568;2023-06-19T14:00:09;6.54;75.07
69598;SHT31;70000;51.176;-115.568;2023-06-19T14:02:39;6.59;75.64
69598;SHT31;70000;51.176;-115.568;2023-06-19T14:05:09;6.64;75.63
69598;SHT31;70000;51.176;-115.568;2023-06-19T14:07:40;6.70;76.09
69598;SHT31;70000;51.176;-115.568;2023-06-19T14:10:10;6.78;76.13
69598;SHT31;70000;51.176;-115.568;2023-06-19T14:12:39;6.84;75.69
69598;SHT31;70000;51.176;-115.568;2023-06-19T14:15:08;6.90;75.47
69598;SHT31;70000;51.176;-115.568;2023-06-19T14:17:38;6.93;74.92
69598;SHT31;70000;51.176;-115.568;2023-06-19T14:20:10;6.97;74.73
69598;SHT31;70000;51.176;-115.568;2023-06-19T14:22:41;7.02;74.67
69598;SHT31;70000;51.176;-115.568;2023-06-19T14:25:10;7.04;74.40
69598;SHT31;70000;51.176;-115.568;2023-06-19T14:27:40;7.05;74.03
69598;SHT31;70000;51.176;-115.568;2023-06-19T14:30:09;7.09;74.28
69598;SHT31;70000;51.176;-115.568;2023-06-19T14:32:39;7.14;73.87
69598;SHT31;70000;51.176;-115.568;2023-06-19T14:35:08;7.18;73.60
69598;SHT31;70000;51.176;-115.568;2023-06-19T14:37:37;7.21;73.83
69598;SHT31;70000;51.176;-115.568;2023-06-19T14:40:06;7.27;73.87
69598;SHT31;70000;51.176;-115.568;2023-06-19T14:42:36;7.32;73.78
69598;SHT31;70000;51.176;-115.568;2023-06-19T14:45:06;7.41;73.25
69598;SHT31;70000;51.176;-115.568;2023-06-19T14:47:36;7.45;73.08
69598;SHT31;70000;51.176;-115.568;2023-06-19T14:50:05;7.47;73.00
69598;SHT31;70000;51.176;-115.568;2023-06-19T14:52:35;7.50;72.77
69598;SHT31;70000;51.176;-115.568;2023-06-19T14:55:04;7.54;72.51
69598;SHT31;70000;51.176;-115.568;2023-06-19T14:57:37;7.53;71.94
69598;SHT31;70000;51.176;-115.568;2023-06-19T15:00:06;7.52;71.79
69598;SHT31;70000;51.176;-115.568;2023-06-19T15:02:36;7.50;72.06
69598;SHT31;70000;51.176;-115.568;2023-06-19T15:05:07;7.51;72.75
69598;SHT31;70000;51.176;-115.568;2023-06-19T15:07:37;7.52;72.87
69598;SHT31;70000;51.176;-115.568;2023-06-19T15:10:06;7.55;73.10
69598;SHT31;70000;51.176;-115.568;2023-06-19T15:12:36;7.61;72.93
69598;SHT31;70000;51.176;-115.568;2023-06-19T15:15:05;7.65;72.53
69598;SHT31;70000;51.176;-115.568;2023-06-19T15:17:35;7.65;72.44
69598;SHT31;70000;51.176;-115.568;2023-06-19T15:20:07;7.64;72.49
69598;SHT31;70000;51.176;-115.568;2023-06-19T15:22:37;7.67;72.39
69598;SHT31;70000;51.176;-115.568;2023-06-19T15:25:06;7.63;72.11